createdAt,value
2023-02-11T00:03:54.447Z,-0.75
2023-02-11T00:08:53.617Z,-0.79
2023-02-11T00:13:53.596Z,-0.82
2023-02-11T00:18:52.618Z,-0.74
2023-02-11T00:23:57.837Z,-0.67
2023-02-11T00:28:52.328Z,-0.6
2023-02-11T00:33:51.911Z,-0.51
2023-02-11T00:38:50.200Z,-0.36
2023-02-11T00:43:49.811Z,-0.31
2023-02-11T00:48:49.127Z,-0.25
2023-02-11T00:53:48.854Z,-0.2
2023-02-11T00:58:48.381Z,-0.17
2023-02-11T01:03:47.975Z,-0.12
2023-02-11T01:08:48.089Z,-0.1
2023-02-11T01:13:47.836Z,-0.03
2023-02-11T01:18:48.886Z,-0.05
2023-02-11T01:23:45.304Z,-0.06
2023-02-11T01:28:45.243Z,-0.05
2023-02-11T01:33:44.757Z,-0.09
2023-02-11T01:38:44.873Z,-0.13
2023-02-11T01:43:42.169Z,-0.15
2023-02-11T01:48:42.524Z,-0.15
2023-02-11T01:53:41.432Z,-0.14
2023-02-11T01:58:41.347Z,-0.13
2023-02-11T02:03:40.743Z,-0.08
2023-02-11T02:08:41.164Z,-0.08
2023-02-11T02:13:40.847Z,-0.07
2023-02-11T02:18:41.098Z,-0.03
2023-02-11T02:23:38.287Z,0.05
2023-02-11T02:28:38.187Z,0.1
2023-02-11T02:33:37.344Z,0.13
2023-02-11T02:38:37.476Z,0.17
2023-02-11T02:43:36.515Z,0.21
2023-02-11T02:48:36.264Z,0.18
2023-02-11T02:53:36.496Z,0.17
2023-02-11T02:58:35.599Z,0.19
2023-02-11T02:59:59.171Z,0.19
2023-02-11T03:04:55.874Z,0.14
2023-02-11T03:09:55.981Z,0.11
2023-02-11T03:14:55.356Z,0.15
2023-02-11T03:19:55.102Z,0.19
2023-02-11T03:24:52.711Z,0.21
2023-02-11T03:29:52.993Z,0.25
2023-02-11T03:34:52.231Z,0.29
2023-02-11T03:39:51.750Z,0.29
2023-02-11T03:44:51.278Z,0.25
2023-02-11T03:49:50.795Z,0.26
2023-02-11T03:54:50.751Z,0.23
2023-02-11T03:59:15.692Z,0.29
2023-02-11T04:04:13.527Z,0.33
2023-02-11T04:09:13.064Z,0.45
2023-02-11T04:14:12.959Z,0.55
2023-02-11T04:19:12.102Z,0.65
2023-02-11T04:24:11.804Z,0.7
2023-02-11T04:29:11.168Z,0.72
2023-02-11T04:34:11.597Z,0.77
2023-02-11T04:39:11.016Z,0.85
2023-02-11T04:44:12.312Z,0.86
2023-02-11T04:49:08.608Z,0.87
2023-02-11T04:54:08.706Z,0.85
2023-02-11T04:58:54.136Z,0.82
2023-02-11T05:03:54.460Z,0.8
2023-02-11T05:08:51.728Z,0.77
2023-02-11T05:13:51.575Z,0.71
2023-02-11T05:18:52.496Z,0.67
2023-02-11T05:23:50.261Z,0.67
2023-02-11T05:28:49.650Z,0.68
2023-02-11T05:33:50.140Z,0.72
2023-02-11T05:38:49.644Z,0.78
2023-02-11T05:43:49.205Z,0.84
2023-02-11T05:48:46.787Z,0.9
2023-02-11T05:53:46.585Z,0.93
2023-02-11T05:58:45.907Z,0.9
2023-02-11T06:03:45.629Z,0.81
2023-02-11T06:08:45.213Z,0.76
2023-02-11T06:13:44.960Z,0.67
2023-02-11T06:18:44.934Z,0.54
2023-02-11T06:23:44.219Z,0.42
2023-02-11T06:28:45.548Z,0.33
2023-02-11T06:33:41.903Z,0.25
2023-02-11T06:38:42.000Z,0.21
2023-02-11T06:43:41.396Z,0.22
2023-02-11T06:48:43.124Z,0.29
2023-02-11T06:53:38.600Z,0.34
2023-02-11T06:58:38.433Z,0.34
2023-02-11T07:03:37.726Z,0.34
2023-02-11T07:08:37.505Z,0.35
2023-02-11T07:13:35.553Z,0.34
2023-02-11T07:18:35.837Z,0.35
2023-02-11T07:23:34.870Z,0.37
2023-02-11T07:28:35.006Z,0.39
2023-02-11T07:33:32.408Z,0.44
2023-02-11T07:38:32.559Z,0.49
2023-02-11T07:43:31.880Z,0.54
2023-02-11T07:48:31.687Z,0.57
2023-02-11T07:53:30.908Z,0.58
2023-02-11T07:58:30.900Z,0.6
2023-02-11T07:59:52.234Z,0.58
2023-02-11T08:04:52.314Z,0.62
2023-02-11T08:09:53.016Z,0.65
2023-02-11T08:14:49.211Z,0.67
2023-02-11T08:19:49.160Z,0.7
2023-02-11T08:24:50.708Z,0.72
2023-02-11T08:29:48.327Z,0.74
2023-02-11T08:34:46.005Z,0.84
2023-02-11T08:39:46.145Z,0.9
2023-02-11T08:44:45.175Z,1.03
2023-02-11T08:49:46.281Z,1.25
2023-02-11T08:54:42.504Z,1.48
2023-02-11T08:59:12.658Z,1.62
2023-02-11T09:04:12.538Z,1.71
2023-02-11T09:09:12.302Z,1.72
2023-02-11T09:14:09.726Z,1.74
2023-02-11T09:19:09.612Z,1.9
2023-02-11T09:24:08.922Z,2.26
2023-02-11T09:29:08.845Z,2.7
2023-02-11T09:34:08.762Z,3.01
2023-02-11T09:39:08.433Z,3.28
2023-02-11T09:44:08.040Z,3.56
2023-02-11T09:49:07.484Z,3.59
2023-02-11T09:54:08.790Z,3.77
2023-02-11T09:58:52.463Z,3.96
2023-02-11T10:03:52.830Z,4.14
2023-02-11T10:08:52.092Z,4.31
2023-02-11T10:13:52.299Z,4.4
2023-02-11T10:18:49.520Z,4.46
2023-02-11T10:23:49.507Z,4.71
2023-02-11T10:28:49.590Z,4.86
2023-02-11T10:33:51.194Z,4.92
2023-02-11T10:39:08.727Z,4.86
2023-02-11T10:43:47.650Z,5.23
2023-02-11T10:48:47.174Z,5.42
2023-02-11T10:53:47.732Z,5.59
2023-02-11T10:58:45.245Z,6.04
2023-02-11T11:03:45.555Z,6.48
2023-02-11T11:08:45.045Z,6.74
2023-02-11T11:13:45.523Z,7.12
2023-02-11T11:18:44.188Z,7.57
2023-02-11T11:23:44.404Z,7.71
2023-02-11T11:28:44.706Z,7.77
2023-02-11T11:33:44.383Z,8.13
2023-02-11T11:38:45.911Z,7.9
2023-02-11T11:43:42.306Z,7.69
2023-02-11T11:48:42.280Z,8.21
2023-02-11T11:58:42.236Z,8.17
2023-02-11T12:03:39.284Z,8.14
2023-02-11T12:09:32.581Z,8.33
2023-02-11T12:13:38.536Z,8.55
2023-02-11T12:18:38.441Z,8.83
2023-02-11T12:23:38.672Z,9.3
2023-02-11T12:28:38.160Z,9.43
2023-02-11T12:33:39.500Z,9.28
2023-02-11T12:38:35.539Z,9.46
2023-02-11T12:43:35.740Z,9.74
2023-02-11T12:48:35.857Z,9.96
2023-02-11T12:53:34.997Z,9.93
2023-02-11T12:58:43.068Z,9.78
2023-02-11T12:59:53.698Z,9.85
2023-02-11T13:04:52.875Z,10.27
2023-02-11T13:09:52.525Z,10.13
2023-02-11T13:14:51.950Z,10.28
2023-02-11T13:19:51.592Z,10.5
2023-02-11T13:24:51.948Z,10.69
2023-02-11T13:29:51.139Z,10.77
2023-02-11T13:34:52.344Z,10.94
2023-02-11T13:39:48.648Z,11.1
2023-02-11T13:44:48.390Z,10.88
2023-02-11T13:49:48.020Z,10.71
2023-02-11T13:54:47.354Z,10.95
2023-02-11T13:59:10.354Z,10.91
2023-02-11T14:04:10.733Z,11.14
2023-02-11T14:09:10.107Z,11.16
2023-02-11T14:14:11.854Z,11.11
2023-02-11T14:19:07.447Z,10.65
2023-02-11T14:24:07.317Z,10.1
2023-02-11T14:29:06.741Z,9.93
2023-02-11T14:34:06.019Z,9.87
2023-02-11T14:39:03.623Z,9.8
2023-02-11T14:44:02.971Z,9.46
2023-02-11T14:49:02.303Z,9.21
2023-02-11T14:54:03.412Z,9.3
2023-02-11T14:58:47.739Z,9.54
2023-02-11T15:03:47.904Z,9.59
2023-02-11T15:08:46.877Z,9.41
2023-02-11T15:13:47.534Z,9.22
2023-02-11T15:18:45.127Z,9.02
2023-02-11T15:23:44.934Z,8.78
2023-02-11T15:28:44.378Z,8.6
2023-02-11T15:33:45.468Z,8.49
2023-02-11T15:38:41.816Z,8.38
2023-02-11T15:43:41.444Z,8.32
2023-02-11T15:48:40.657Z,8.24
2023-02-11T15:53:40.629Z,8.18
2023-02-11T15:58:38.461Z,8.12
2023-02-11T16:03:37.689Z,8.07
2023-02-11T16:08:36.923Z,8.02
2023-02-11T16:13:36.555Z,8.01
2023-02-11T16:28:35.785Z,7.91
2023-02-11T16:33:35.071Z,7.87
2023-02-11T16:38:36.317Z,7.83
2023-02-11T16:43:32.941Z,7.79
2023-02-11T16:48:32.673Z,7.73
2023-02-11T16:53:32.020Z,7.7
2023-02-11T16:58:30.802Z,7.69
2023-02-11T16:59:52.209Z,7.68
2023-02-11T17:04:52.188Z,7.68
2023-02-11T17:09:51.743Z,7.65
2023-02-11T17:14:52.756Z,7.61
2023-02-11T17:19:49.054Z,7.5
2023-02-11T17:24:48.803Z,7.26
2023-02-11T17:29:48.261Z,7.07
2023-02-11T17:34:48.106Z,7.01
2023-02-11T17:39:45.582Z,6.92
2023-02-11T17:44:45.745Z,6.84
2023-02-11T17:49:44.759Z,6.78
2023-02-11T17:54:44.728Z,6.71
2023-02-11T17:58:54.365Z,6.66
2023-02-11T18:03:55.140Z,6.62
2023-02-11T18:08:53.307Z,6.61
2023-02-11T18:13:52.817Z,6.65
2023-02-11T18:18:54.468Z,6.66
2023-02-11T18:23:50.478Z,6.67
2023-02-11T18:28:50.265Z,6.62
2023-02-11T18:33:50.281Z,6.51
2023-02-11T18:38:49.602Z,6.4
2023-02-11T18:43:49.184Z,6.32
2023-02-11T18:48:49.513Z,6.25
2023-02-11T18:53:48.929Z,6.19
2023-02-11T18:58:50.332Z,6.15
2023-02-11T19:03:46.616Z,6.1
2023-02-11T19:08:46.494Z,6.04
2023-02-11T19:13:45.911Z,5.99
2023-02-11T19:18:45.623Z,5.96
2023-02-11T19:23:43.228Z,5.96
2023-02-11T19:28:43.223Z,6.1
2023-02-11T19:33:42.426Z,6.33
2023-02-11T19:38:42.613Z,6.5
2023-02-11T19:43:41.814Z,6.57
2023-02-11T19:48:41.536Z,6.59
2023-02-11T19:53:41.705Z,6.62
2023-02-11T19:58:40.990Z,6.66
2023-02-11T20:03:42.661Z,6.68
2023-02-11T20:08:38.539Z,6.71
2023-02-11T20:13:38.101Z,6.75
2023-02-11T20:18:38.252Z,6.79
2023-02-11T20:23:37.057Z,6.79
2023-02-11T20:28:36.693Z,6.81
2023-02-11T20:33:37.186Z,6.81
2023-02-11T20:38:36.527Z,6.76
2023-02-11T20:43:38.012Z,6.55
2023-02-11T20:48:34.126Z,6.5
2023-02-11T20:53:33.958Z,6.43
2023-02-11T20:58:33.758Z,6.31
2023-02-11T20:59:55.775Z,6.27
2023-02-11T21:04:53.404Z,6.12
2023-02-11T21:09:53.071Z,5.96
2023-02-11T21:14:52.860Z,5.87
2023-02-11T21:19:52.348Z,5.77
2023-02-11T21:24:51.796Z,5.66
2023-02-11T21:29:54.374Z,5.55
2023-02-11T21:34:51.955Z,5.48
2023-02-11T21:39:51.331Z,5.37
2023-02-11T21:44:52.791Z,5.27
2023-02-11T21:49:49.324Z,5.18
2023-02-11T21:54:48.806Z,5.09
2023-02-11T21:59:12.559Z,5.04
2023-02-11T22:04:12.456Z,4.98
2023-02-11T22:09:11.879Z,4.94
2023-02-11T22:14:11.987Z,4.91
2023-02-11T22:19:11.273Z,4.88
2023-02-11T22:24:12.234Z,4.85
2023-02-11T22:29:08.278Z,4.82
2023-02-11T22:34:08.233Z,4.8
2023-02-11T22:39:07.566Z,4.76
2023-02-11T22:44:07.639Z,4.71
2023-02-11T22:49:05.107Z,4.69
2023-02-11T22:54:05.099Z,4.67
2023-02-11T22:58:51.542Z,4.69
2023-02-11T23:03:51.521Z,4.71
2023-02-11T23:08:50.465Z,4.69
2023-02-11T23:13:50.504Z,4.67
2023-02-11T23:18:49.348Z,4.65
2023-02-11T23:23:49.051Z,4.6
2023-02-11T23:28:46.899Z,4.6
2023-02-11T23:33:47.060Z,4.61
2023-02-11T23:38:46.027Z,4.63
2023-02-11T23:43:45.950Z,4.65
2023-02-11T23:48:44.898Z,4.64
2023-02-11T23:53:44.825Z,4.62
2023-02-11T23:58:44.680Z,4.58
